Time;durP1;ratioP1;P1;durP2;ratioP2;P2;SDS_P1;SDS_P2;PMS_P1;PMS_P2;Temp;Humidity;BMP_temperature;BMP_pressure;BME280_temperature;BME280_humidity;BME280_pressure;Samples;Min_cycle;Max_cycle;Signal;HPM_P1;HPM_P2
2022/11/01 00:01:17;;;;;;;21.40;12.50;;;13.00;99.90;;;;;;6228402;22;20596;-85
2022/11/01 00:03:43;;;;;;;21.63;11.45;;;13.00;99.90;;;;;;6228849;22;20050;-85
2022/11/01 00:06:09;;;;;;;19.15;11.95;;;13.10;99.90;;;;;;6203864;22;20023;-86
2022/11/01 00:08:34;;;;;;;20.70;11.70;;;13.20;99.90;;;;;;6228820;22;20008;-85
2022/11/01 00:11:10;;;;;;;14.52;11.23;;;13.20;99.90;;;;;;6252834;22;20019;-84
2022/11/01 00:13:36;;;;;;;17.45;11.18;;;13.20;99.90;;;;;;6202344;22;20016;-85
2022/11/01 00:16:02;;;;;;;19.80;11.57;;;13.20;99.90;;;;;;6228590;22;20398;-85
2022/11/01 00:18:30;;;;;;;20.58;12.85;;;13.20;99.90;;;;;;6228673;22;20084;-85
2022/11/01 00:20:56;;;;;;;19.65;11.57;;;13.20;99.90;;;;;;6204180;22;20055;-84
2022/11/01 00:23:21;;;;;;;20.77;11.52;;;13.20;99.90;;;;;;6230650;22;20015;-85
2022/11/01 00:25:47;;;;;;;20.48;11.65;;;13.20;99.90;;;;;;6203197;22;20431;-85
2022/11/01 00:28:13;;;;;;;20.00;11.30;;;13.20;99.90;;;;;;6229570;22;20405;-85
2022/11/01 00:30:39;;;;;;;19.70;11.45;;;13.20;99.90;;;;;;6229980;22;20440;-85
2022/11/01 00:33:05;;;;;;;17.80;11.18;;;13.10;99.90;;;;;;6205733;22;20065;-85
2022/11/01 00:35:32;;;;;;;21.90;11.40;;;13.20;99.90;;;;;;6205389;22;20091;-85
2022/11/01 00:38:01;;;;;;;23.58;11.90;;;13.20;99.90;;;;;;6205397;22;20028;-85
2022/11/01 00:40:27;;;;;;;16.95;11.32;;;13.30;99.90;;;;;;6204630;22;20016;-85
2022/11/01 00:42:53;;;;;;;18.65;10.95;;;13.30;99.90;;;;;;6253910;22;20015;-85
2022/11/01 00:45:18;;;;;;;18.30;11.13;;;13.40;99.90;;;;;;6203712;22;20459;-85
2022/11/01 00:47:48;;;;;;;22.60;11.85;;;13.40;99.90;;;;;;6255089;22;20012;-85
2022/11/01 00:50:14;;;;;;;19.48;10.68;;;13.40;99.90;;;;;;6205496;22;20087;-85
2022/11/01 00:52:40;;;;;;;20.15;11.05;;;13.30;99.90;;;;;;6229386;22;20051;-85
2022/11/01 00:55:06;;;;;;;16.17;10.73;;;13.40;99.90;;;;;;6204028;22;20022;-86
2022/11/01 00:57:31;;;;;;;16.92;10.15;;;13.40;99.90;;;;;;6227464;22;20020;-85
2022/11/01 00:59:57;;;;;;;15.52;10.48;;;13.40;99.90;;;;;;6230679;22;20083;-85
2022/11/01 01:02:23;;;;;;;17.52;10.45;;;13.40;99.90;;;;;;6204441;22;20026;-85
2022/11/01 01:04:49;;;;;;;18.65;11.25;;;13.50;99.90;;;;;;6229556;22;20080;-85
2022/11/01 01:07:15;;;;;;;15.35;10.55;;;13.40;99.90;;;;;;6230264;22;20508;-84
2022/11/01 01:09:44;;;;;;;22.67;10.60;;;13.40;99.90;;;;;;6202912;22;20034;-84
2022/11/01 01:12:10;;;;;;;14.73;10.10;;;13.60;99.90;;;;;;6228411;22;20469;-85
2022/11/01 01:14:36;;;;;;;17.80;10.60;;;13.50;99.90;;;;;;6203878;22;20489;-85
2022/11/01 01:17:04;;;;;;;18.02;10.15;;;13.50;99.90;;;;;;6229687;22;20033;-85
2022/11/01 01:19:30;;;;;;;21.17;10.43;;;13.60;99.90;;;;;;6229978;22;20023;-85
2022/11/01 01:21:55;;;;;;;18.17;10.35;;;13.60;99.90;;;;;;6204924;22;20016;-85
2022/11/01 01:24:24;;;;;;;20.77;10.05;;;13.60;99.90;;;;;;6254490;22;20011;-85
2022/11/01 01:26:50;;;;;;;13.93;9.95;;;13.70;99.90;;;;;;6204442;22;20476;-85
2022/11/01 01:29:16;;;;;;;17.35;10.23;;;13.60;99.90;;;;;;6202612;22;20012;-85
2022/11/01 01:31:42;;;;;;;19.63;10.38;;;13.70;99.90;;;;;;6231036;22;20016;-85
2022/11/01 01:34:07;;;;;;;18.70;9.70;;;13.70;99.90;;;;;;6229346;22;20418;-85
2022/11/01 01:36:33;;;;;;;17.98;10.05;;;13.80;99.90;;;;;;6205031;22;20348;-86
2022/11/01 01:38:59;;;;;;;16.38;10.02;;;13.80;99.90;;;;;;6229371;22;20337;-85
2022/11/01 01:44:48;;;;;;;17.58;9.55;;;13.80;99.90;;;;;;6228487;22;20015;-85
2022/11/01 01:47:20;;;;;;;16.92;9.55;;;13.80;99.90;;;;;;6205087;22;20026;-84
2022/11/01 01:49:47;;;;;;;13.45;9.48;;;13.80;99.90;;;;;;6203984;22;20558;-86
2022/11/01 01:52:14;;;;;;;17.15;10.00;;;13.80;99.90;;;;;;6204736;22;20020;-85
2022/11/01 01:54:40;;;;;;;18.52;9.85;;;13.80;99.90;;;;;;6253715;22;20016;-85
2022/11/01 01:57:07;;;;;;;17.67;10.30;;;13.70;99.90;;;;;;6203301;22;20072;-85
2022/11/01 01:59:33;;;;;;;17.70;10.30;;;13.70;99.90;;;;;;6254222;22;20012;-85
2022/11/01 02:01:59;;;;;;;16.33;9.45;;;13.70;99.90;;;;;;6204449;22;20015;-85
2022/11/01 02:04:34;;;;;;;18.60;10.68;;;13.70;99.90;;;;;;6204127;22;20082;-85
2022/11/01 02:07:00;;;;;;;17.27;9.93;;;13.80;99.90;;;;;;6204748;22;20401;-85
2022/11/01 02:09:26;;;;;;;16.00;9.10;;;13.80;99.90;;;;;;6228411;22;20342;-85
2022/11/01 02:11:51;;;;;;;17.15;9.85;;;13.70;99.90;;;;;;6229745;22;20022;-85
2022/11/01 02:14:20;;;;;;;15.35;9.20;;;13.70;99.90;;;;;;6203022;22;20016;-84
2022/11/01 02:17:02;;;;;;;17.40;9.63;;;13.80;99.90;;;;;;6203462;22;20018;-85
2022/11/01 02:20:03;;;;;;;17.25;9.48;;;13.70;99.90;;;;;;6204268;22;20008;-85
2022/11/01 02:22:34;;;;;;;18.90;8.80;;;13.70;99.90;;;;;;6203641;22;20090;-85
2022/11/01 02:25:19;;;;;;;19.52;10.18;;;13.80;99.90;;;;;;6229480;22;20049;-85
2022/11/01 02:28:00;;;;;;;14.27;8.97;;;13.80;99.90;;;;;;6202400;22;20012;-85
2022/11/01 02:31:03;;;;;;;19.52;9.20;;;13.80;99.90;;;;;;6229316;22;20023;-83
2022/11/01 02:33:38;;;;;;;21.42;10.00;;;13.80;99.90;;;;;;6221915;22;20011;-85
2022/11/01 02:36:10;;;;;;;15.90;8.88;;;13.90;99.90;;;;;;6255845;22;20023;-85
2022/11/01 02:38:39;;;;;;;14.35;8.88;;;13.80;99.90;;;;;;6203952;22;20094;-85
2022/11/01 02:41:17;;;;;;;13.50;9.10;;;13.80;99.90;;;;;;6203255;22;20099;-85
2022/11/01 02:43:53;;;;;;;19.67;8.98;;;13.80;99.90;;;;;;6227941;22;20473;-84
2022/11/01 02:49:08;;;;;;;18.25;9.77;;;13.80;99.90;;;;;;6229446;22;20434;-85
2022/11/01 02:51:38;;;;;;;16.67;10.00;;;13.80;99.90;;;;;;6229011;22;20367;-86
2022/11/01 02:54:11;;;;;;;17.35;9.23;;;13.80;99.90;;;;;;6205037;22;20016;-85
2022/11/01 02:56:42;;;;;;;14.00;8.80;;;13.80;99.90;;;;;;6203458;22;20357;-85
2022/11/01 02:59:14;;;;;;;19.27;9.15;;;13.80;99.90;;;;;;6227970;22;20064;-84
2022/11/01 03:01:43;;;;;;;21.15;9.40;;;13.80;99.90;;;;;;6204939;22;20570;-84
2022/11/01 03:04:09;;;;;;;15.98;9.20;;;13.80;99.90;;;;;;6229125;22;20011;-85
2022/11/01 03:06:45;;;;;;;23.02;9.38;;;13.80;99.90;;;;;;6204683;22;20326;-85
2022/11/01 03:09:12;;;;;;;15.07;8.82;;;13.80;99.90;;;;;;6203125;22;20031;-85
2022/11/01 03:12:07;;;;;;;16.98;9.35;;;13.80;99.90;;;;;;6202599;22;20012;-84
2022/11/01 03:14:58;;;;;;;15.20;8.50;;;13.80;99.90;;;;;;6203744;22;20067;-85
2022/11/01 03:17:47;;;;;;;16.83;8.70;;;13.80;99.90;;;;;;6205011;22;20083;-85
2022/11/01 03:20:46;;;;;;;12.80;8.48;;;13.90;99.90;;;;;;6230096;22;20408;-85
2022/11/01 03:23:15;;;;;;;15.85;8.43;;;14.00;99.90;;;;;;6229204;22;20042;-85
2022/11/01 03:25:46;;;;;;;17.73;8.65;;;14.00;99.90;;;;;;6227014;22;20020;-84
2022/11/01 03:28:21;;;;;;;13.32;8.40;;;14.00;99.90;;;;;;6203778;22;20012;-85
2022/11/01 03:31:06;;;;;;;13.27;8.30;;;14.00;99.90;;;;;;6228573;22;20086;-85
2022/11/01 03:33:36;;;;;;;13.23;8.52;;;14.00;99.90;;;;;;6204946;22;20058;-84
2022/11/01 03:36:06;;;;;;;17.02;7.70;;;14.10;99.90;;;;;;6203168;22;20065;-85
2022/11/01 03:38:36;;;;;;;14.70;8.07;;;14.10;99.90;;;;;;6204048;22;20047;-85
2022/11/01 03:41:06;;;;;;;14.07;8.65;;;14.10;99.90;;;;;;6201431;22;20507;-85
2022/11/01 03:43:37;;;;;;;13.20;7.80;;;14.10;99.90;;;;;;6202869;22;20427;-85
2022/11/01 03:46:03;;;;;;;14.95;7.80;;;14.20;99.90;;;;;;6203074;22;20012;-85
2022/11/01 03:48:29;;;;;;;14.25;7.97;;;14.20;99.90;;;;;;6202586;22;20011;-85
2022/11/01 03:50:57;;;;;;;12.00;7.32;;;14.30;99.90;;;;;;6204233;22;20007;-84
2022/11/01 03:53:24;;;;;;;13.77;7.32;;;14.30;99.90;;;;;;6197791;23;20020;-85
2022/11/01 03:55:49;;;;;;;13.50;7.32;;;14.30;99.90;;;;;;6195942;22;20031;-85
2022/11/01 03:58:18;;;;;;;13.43;7.15;;;14.30;99.90;;;;;;6199365;23;20107;-85
2022/11/01 04:00:45;;;;;;;11.52;7.75;;;14.20;99.90;;;;;;6198296;22;20049;-85
2022/11/01 04:03:12;;;;;;;12.32;7.13;;;14.20;99.90;;;;;;6200643;22;20101;-85
2022/11/01 04:05:39;;;;;;;11.88;7.43;;;14.20;99.90;;;;;;6225490;23;20013;-84
2022/11/01 04:08:06;;;;;;;13.57;6.72;;;14.30;99.90;;;;;;6200782;23;20199;-85
2022/11/01 04:10:32;;;;;;;12.02;6.90;;;14.20;99.90;;;;;;6199160;22;20374;-85
2022/11/01 04:12:59;;;;;;;13.85;7.63;;;14.30;99.90;;;;;;6199053;23;20024;-85
2022/11/01 04:21:17;;;;;;;14.02;7.30;;;14.30;99.90;;;;;;6225430;23;20047;-84
2022/11/01 04:23:44;;;;;;;12.55;7.00;;;14.40;99.90;;;;;;6200299;22;20016;-84
2022/11/01 04:26:13;;;;;;;13.10;6.80;;;14.40;99.90;;;;;;6223894;23;20020;-85
2022/11/01 04:28:39;;;;;;;12.10;6.53;;;14.50;99.90;;;;;;6198632;22;20122;-84
2022/11/01 04:31:05;;;;;;;11.90;6.30;;;14.50;99.90;;;;;;6198254;22;20047;-85
2022/11/01 04:33:31;;;;;;;13.40;6.18;;;14.50;99.90;;;;;;6199428;22;20016;-85
2022/11/01 04:35:57;;;;;;;12.88;6.43;;;14.50;99.90;;;;;;6225263;23;20008;-85
2022/11/01 04:38:23;;;;;;;10.65;6.15;;;14.60;99.90;;;;;;6200268;22;20023;-85
2022/11/01 04:40:48;;;;;;;10.20;6.60;;;14.60;99.90;;;;;;6198776;22;20281;-85
2022/11/01 04:43:15;;;;;;;10.73;6.35;;;14.70;99.90;;;;;;6199565;22;20019;-85
2022/11/01 04:45:40;;;;;;;12.55;6.53;;;14.60;99.90;;;;;;6199514;22;20017;-85
2022/11/01 04:48:15;;;;;;;11.23;5.70;;;14.70;99.90;;;;;;6199818;22;20016;-85
2022/11/01 04:50:41;;;;;;;11.98;5.88;;;14.70;99.90;;;;;;6201353;22;20476;-84
2022/11/01 04:53:08;;;;;;;14.13;6.57;;;14.70;99.90;;;;;;6199992;22;20154;-84
2022/11/01 04:55:37;;;;;;;11.07;6.32;;;14.80;99.90;;;;;;6198862;22;20016;-85
2022/11/01 04:58:05;;;;;;;10.40;6.00;;;14.80;99.90;;;;;;6225091;22;20469;-84
2022/11/01 05:00:34;;;;;;;9.93;6.00;;;14.80;99.90;;;;;;6200726;23;20024;-85
2022/11/01 05:03:01;;;;;;;10.73;5.60;;;14.90;99.90;;;;;;6226258;23;20012;-85
2022/11/01 05:05:27;;;;;;;10.30;5.93;;;14.90;99.90;;;;;;6226240;23;20017;-84
2022/11/01 05:08:10;;;;;;;12.02;6.13;;;14.90;99.90;;;;;;6200584;22;20008;-85
2022/11/01 05:10:38;;;;;;;10.20;5.60;;;14.90;99.90;;;;;;6198838;22;20012;-85
2022/11/01 05:13:04;;;;;;;10.85;6.03;;;14.90;99.90;;;;;;6200034;23;20088;-85
2022/11/01 05:15:30;;;;;;;11.27;5.93;;;15.00;99.90;;;;;;6200938;22;20027;-85
2022/11/01 05:17:58;;;;;;;9.52;5.65;;;15.10;99.90;;;;;;6201198;22;20342;-85
2022/11/01 05:20:24;;;;;;;11.38;5.50;;;15.10;99.90;;;;;;6200425;22;20360;-84
2022/11/01 05:22:50;;;;;;;11.68;5.72;;;15.10;99.90;;;;;;6200678;22;20550;-85
2022/11/01 05:25:16;;;;;;;14.15;6.13;;;15.10;99.90;;;;;;6199276;22;20020;-85
2022/11/01 05:27:42;;;;;;;11.55;5.03;;;15.00;99.90;;;;;;6197703;22;20035;-85
2022/11/01 05:30:09;;;;;;;10.43;5.65;;;15.20;99.90;;;;;;6199106;22;20039;-85
2022/11/01 05:32:36;;;;;;;13.45;6.55;;;15.20;99.90;;;;;;6224023;23;20019;-85
2022/11/01 05:35:05;;;;;;;12.93;5.55;;;15.20;99.90;;;;;;6199917;22;20534;-85
2022/11/01 05:37:31;;;;;;;10.27;6.00;;;15.30;99.90;;;;;;6200396;22;20164;-85
2022/11/01 05:39:56;;;;;;;8.63;5.25;;;15.40;99.90;;;;;;6199228;22;20092;-85
2022/11/01 05:42:22;;;;;;;12.68;6.03;;;15.40;99.90;;;;;;6224228;22;20016;-84
2022/11/01 05:44:47;;;;;;;12.27;5.47;;;15.40;99.90;;;;;;6198210;22;20017;-84
2022/11/01 05:47:13;;;;;;;14.55;5.63;;;15.40;99.90;;;;;;6199672;22;20040;-85
2022/11/01 05:49:39;;;;;;;11.02;4.75;;;15.50;99.90;;;;;;6199754;22;20008;-85
2022/11/01 05:52:04;;;;;;;8.80;4.15;;;15.50;99.90;;;;;;6224502;22;20104;-85
2022/11/01 05:54:33;;;;;;;7.03;3.45;;;15.40;99.90;;;;;;6198807;22;20021;-85
2022/11/01 05:56:59;;;;;;;7.43;2.80;;;15.30;99.90;;;;;;6199083;22;20012;-85
2022/11/01 05:59:24;;;;;;;7.80;2.95;;;15.30;99.90;;;;;;6198165;22;20348;-85
2022/11/01 06:01:50;;;;;;;4.50;1.80;;;15.10;99.90;;;;;;6199815;22;20636;-85
2022/11/01 06:04:16;;;;;;;3.72;1.63;;;15.20;99.90;;;;;;6201248;22;20016;-85
2022/11/01 06:06:41;;;;;;;5.05;1.50;;;15.20;99.90;;;;;;6224270;23;20095;-84
2022/11/01 06:09:07;;;;;;;5.93;1.77;;;15.00;99.90;;;;;;6199459;22;20047;-84
2022/11/01 06:11:33;;;;;;;6.90;1.90;;;14.80;99.90;;;;;;6199662;22;20091;-84
2022/11/01 06:14:01;;;;;;;7.80;1.65;;;14.70;99.90;;;;;;6198887;22;20517;-84
2022/11/01 06:16:27;;;;;;;4.65;1.65;;;14.60;99.90;;;;;;6200957;22;20508;-84
2022/11/01 06:18:53;;;;;;;3.40;1.23;;;14.60;99.90;;;;;;6223925;22;20248;-84
2022/11/01 06:21:21;;;;;;;4.32;1.55;;;14.60;99.90;;;;;;6199261;22;20013;-84
2022/11/01 06:23:49;;;;;;;5.57;1.40;;;14.50;99.90;;;;;;6198550;22;20047;-85
2022/11/01 06:26:16;;;;;;;4.88;1.17;;;14.30;99.90;;;;;;6197405;22;20154;-84
2022/11/01 06:28:42;;;;;;;3.35;1.55;;;14.20;99.90;;;;;;6222431;23;20075;-84
2022/11/01 06:31:08;;;;;;;8.63;1.25;;;14.10;99.90;;;;;;6198743;22;20019;-84
2022/11/01 06:33:34;;;;;;;4.00;1.45;;;14.10;99.90;;;;;;6201368;22;20039;-84
2022/11/01 06:36:01;;;;;;;2.45;1.15;;;14.00;99.90;;;;;;6198446;22;20027;-84
2022/11/01 06:38:27;;;;;;;3.22;1.02;;;14.00;99.90;;;;;;6198088;22;20024;-84
2022/11/01 06:40:53;;;;;;;4.93;1.30;;;14.00;99.90;;;;;;6196290;22;20033;-84
2022/11/01 06:43:18;;;;;;;4.03;1.13;;;14.00;99.90;;;;;;6197355;22;20016;-84
2022/11/01 06:45:44;;;;;;;6.03;1.00;;;13.80;99.90;;;;;;6198150;22;20016;-84
2022/11/01 06:48:10;;;;;;;3.13;1.15;;;13.80;99.90;;;;;;6199268;22;20016;-84
2022/11/01 06:50:35;;;;;;;5.45;1.30;;;13.80;99.90;;;;;;6224217;22;20041;-84
2022/11/01 06:53:01;;;;;;;4.13;1.00;;;13.70;99.90;;;;;;6198623;22;20016;-84
2022/11/01 06:55:28;;;;;;;3.30;0.88;;;13.80;99.90;;;;;;6197844;22;20016;-85
2022/11/01 06:58:02;;;;;;;5.43;1.67;;;13.70;82.50;;;;;;6196650;22;20027;-85
2022/11/01 07:00:29;;;;;;;5.85;1.50;;;13.80;1.00;;;;;;6198632;22;20456;-84
2022/11/01 07:03:10;;;;;;;9.65;2.15;;;13.60;99.90;;;;;;6198331;23;20085;-85
2022/11/01 07:05:37;;;;;;;4.97;1.38;;;13.60;99.90;;;;;;6198114;22;20049;-85
2022/11/01 07:08:04;;;;;;;4.78;1.20;;;13.50;99.90;;;;;;6223113;23;20070;-85
2022/11/01 07:10:34;;;;;;;3.42;1.08;;;13.40;99.90;;;;;;6197686;22;20040;-84
2022/11/01 07:13:01;;;;;;;6.10;1.50;;;13.40;81.50;;;;;;6197533;23;20058;-85
2022/11/01 07:15:28;;;;;;;4.50;1.27;;;13.40;7.70;;;;;;6221966;23;20091;-85
2022/11/01 07:18:01;;;;;;;7.35;1.45;;;13.30;60.40;;;;;;6197941;22;20107;-84
2022/11/01 07:20:28;;;;;;;3.30;1.15;;;13.40;1.00;;;;;;6197473;22;20103;-85
2022/11/01 07:23:02;;;;;;;6.30;1.50;;;13.40;1.00;;;;;;6197055;22;20019;-85
2022/11/01 07:25:28;;;;;;;5.75;1.50;;;13.60;99.90;;;;;;6195955;22;20012;-85
2022/11/01 07:27:54;;;;;;;5.00;1.58;;;13.50;1.00;;;;;;6220869;23;20015;-84
2022/11/01 07:30:20;;;;;;;8.07;1.60;;;13.60;1.00;;;;;;6222253;22;20647;-85
2022/11/01 07:32:46;;;;;;;6.90;1.70;;;13.70;99.90;;;;;;6221477;23;20020;-84
2022/11/01 07:35:12;;;;;;;11.35;2.08;;;13.60;1.00;;;;;;6198406;22;20076;-85
2022/11/01 07:37:38;;;;;;;8.75;1.73;;;13.70;99.90;;;;;;6197185;22;20016;-84
2022/11/01 07:40:05;;;;;;;8.88;2.00;;;13.80;99.90;;;;;;6196836;23;20095;-85
2022/11/01 07:42:39;;;;;;;7.32;1.92;;;13.70;99.90;;;;;;6220307;23;20433;-84
2022/11/01 07:45:05;;;;;;;10.57;1.77;;;13.80;99.90;;;;;;6196660;22;20023;-85
2022/11/01 07:47:31;;;;;;;7.05;1.95;;;13.90;99.90;;;;;;6197739;22;20050;-84
2022/11/01 07:49:56;;;;;;;5.80;1.73;;;13.90;99.90;;;;;;6198582;22;20012;-84
2022/11/01 07:52:25;;;;;;;7.82;1.45;;;13.90;99.90;;;;;;6223099;22;20020;-84
2022/11/01 07:54:50;;;;;;;6.82;1.67;;;13.90;99.90;;;;;;6196205;22;20103;-84
2022/11/01 07:57:16;;;;;;;7.72;1.80;;;13.90;99.90;;;;;;6195577;22;20052;-85
2022/11/01 07:59:42;;;;;;;5.43;1.50;;;13.90;99.90;;;;;;6195855;22;20318;-84
2022/11/01 08:02:08;;;;;;;9.43;1.95;;;14.00;1.00;;;;;;6196832;22;20076;-84
2022/11/01 08:04:34;;;;;;;7.28;1.77;;;14.10;99.90;;;;;;6197340;22;20009;-84
2022/11/01 08:07:00;;;;;;;11.90;1.75;;;14.20;1.00;;;;;;6223502;23;20047;-84
2022/11/01 08:09:26;;;;;;;8.65;1.80;;;14.30;1.00;;;;;;6196801;22;20030;-84
2022/11/01 08:11:52;;;;;;;8.55;1.80;;;14.30;1.00;;;;;;6197592;22;20019;-85
2022/11/01 08:14:17;;;;;;;4.93;1.70;;;14.20;1.00;;;;;;6195724;22;20009;-84
2022/11/01 08:16:46;;;;;;;11.55;1.83;;;14.30;10.30;;;;;;6221962;22;20437;-84
2022/11/01 08:19:12;;;;;;;8.57;1.70;;;14.50;99.90;;;;;;6196849;22;20369;-83
2022/11/01 08:21:38;;;;;;;6.95;1.77;;;14.60;99.90;;;;;;6221918;22;20012;-84
2022/11/01 08:24:03;;;;;;;7.30;2.13;;;14.60;99.90;;;;;;6195880;22;20016;-84
2022/11/01 08:26:32;;;;;;;6.93;1.90;;;14.60;99.90;;;;;;6195885;22;20016;-84
2022/11/01 08:28:59;;;;;;;9.82;1.92;;;14.60;99.90;;;;;;6194730;22;20033;-84
2022/11/01 08:31:24;;;;;;;10.95;2.38;;;14.60;99.90;;;;;;6197041;22;20437;-85
2022/11/01 08:33:50;;;;;;;7.32;2.20;;;14.50;99.90;;;;;;6195500;22;20034;-84
2022/11/01 08:36:16;;;;;;;12.82;2.40;;;14.40;1.00;;;;;;6197474;22;20072;-85
2022/11/01 08:38:43;;;;;;;11.98;2.10;;;14.30;99.90;;;;;;6195927;22;20016;-84
2022/11/01 08:41:08;;;;;;;11.80;2.40;;;14.30;99.90;;;;;;6195222;22;20016;-85
2022/11/01 08:43:40;;;;;;;16.80;3.03;;;14.30;99.90;;;;;;6197357;22;20019;-84
2022/11/01 08:46:06;;;;;;;11.35;3.22;;;14.20;99.90;;;;;;6222525;23;20284;-84
2022/11/01 08:48:32;;;;;;;13.05;2.33;;;14.20;99.90;;;;;;6199176;22;20012;-84
2022/11/01 08:50:57;;;;;;;13.13;3.17;;;14.20;65.90;;;;;;6197990;22;20463;-85
2022/11/01 08:53:23;;;;;;;13.27;2.47;;;14.20;1.00;;;;;;6223555;22;20043;-84
2022/11/01 08:55:56;;;;;;;13.70;2.80;;;14.30;53.00;;;;;;6196114;22;20020;-84
2022/11/01 08:58:21;;;;;;;14.30;3.17;;;14.50;1.00;;;;;;6222240;22;20095;-84
2022/11/01 09:00:47;;;;;;;13.52;3.03;;;14.50;1.00;;;;;;6198776;22;20073;-85
2022/11/01 09:03:13;;;;;;;8.40;2.40;;;14.50;1.00;;;;;;6198857;22;20016;-84
2022/11/01 09:05:39;;;;;;;12.68;2.90;;;14.50;1.00;;;;;;6198719;22;20012;-84
2022/11/01 09:08:05;;;;;;;10.57;3.03;;;14.70;24.10;;;;;;6199772;22;20008;-85
2022/11/01 09:10:31;;;;;;;20.65;3.05;;;14.70;1.00;;;;;;6196804;22;20353;-85
2022/11/01 09:13:00;;;;;;;12.30;3.00;;;14.60;1.00;;;;;;6222170;23;20089;-85
2022/11/01 09:15:26;;;;;;;13.45;3.28;;;14.60;99.90;;;;;;6222649;23;20020;-84
2022/11/01 09:17:51;;;;;;;14.20;2.92;;;14.80;99.90;;;;;;6197912;22;20416;-84
2022/11/01 09:20:18;;;;;;;18.23;3.30;;;14.90;99.90;;;;;;6222924;22;20016;-85
2022/11/01 09:22:44;;;;;;;12.77;2.92;;;15.00;99.90;;;;;;6197715;23;20018;-84
2022/11/01 09:25:13;;;;;;;14.18;2.80;;;14.90;99.90;;;;;;6221989;23;20087;-84
2022/11/01 09:27:38;;;;;;;16.10;2.50;;;15.00;99.90;;;;;;6195623;22;20132;-84
2022/11/01 09:30:05;;;;;;;14.85;3.40;;;15.10;99.90;;;;;;6198790;22;20509;-84
2022/11/01 09:32:30;;;;;;;17.65;2.95;;;15.10;99.90;;;;;;6197451;23;20016;-84
2022/11/01 09:34:59;;;;;;;8.98;2.78;;;15.20;99.90;;;;;;6198164;22;20345;-84
2022/11/01 09:37:25;;;;;;;13.63;3.03;;;15.20;99.90;;;;;;6198407;22;20476;-85
2022/11/01 09:39:50;;;;;;;13.48;2.63;;;15.20;99.90;;;;;;6197114;22;20016;-85
2022/11/01 09:42:19;;;;;;;10.30;2.60;;;15.20;62.50;;;;;;6197158;22;20020;-84
2022/11/01 09:44:47;;;;;;;12.27;3.00;;;15.30;99.90;;;;;;6196651;22;20372;-84
2022/11/01 09:47:17;;;;;;;14.68;2.58;;;15.40;99.90;;;;;;6198556;22;20015;-84
2022/11/01 09:49:47;;;;;;;18.20;2.88;;;15.40;76.90;;;;;;6197351;22;20016;-84
2022/11/01 09:52:21;;;;;;;9.95;2.83;;;15.40;99.90;;;;;;6198300;23;20094;-84
2022/11/01 09:54:47;;;;;;;15.37;2.97;;;15.20;99.90;;;;;;6195660;22;20023;-84
2022/11/01 09:57:20;;;;;;;13.52;2.80;;;15.30;99.90;;;;;;6221965;23;20240;-84
2022/11/01 09:59:59;;;;;;;16.13;3.05;;;15.30;99.90;;;;;;6223472;23;20500;-83
2022/11/01 10:03:07;;;;;;;12.25;2.63;;;15.30;99.90;;;;;;6223386;22;20351;-84
2022/11/01 10:06:14;;;;;;;14.93;2.67;;;15.30;99.90;;;;;;6223695;23;20056;-84
2022/11/01 10:08:58;;;;;;;14.80;3.00;;;15.30;99.90;;;;;;6200763;22;20016;-84
2022/11/01 10:11:50;;;;;;;14.32;3.03;;;15.40;99.90;;;;;;6196353;22;20008;-84
2022/11/01 10:14:53;;;;;;;16.95;3.10;;;15.40;99.90;;;;;;6222522;22;20012;-84
2022/11/01 10:17:27;;;;;;;15.95;2.97;;;15.60;99.90;;;;;;6198659;22;20016;-84
2022/11/01 10:19:53;;;;;;;14.43;3.00;;;15.60;99.90;;;;;;6198745;22;20108;-84
2022/11/01 10:22:28;;;;;;;15.05;3.42;;;15.30;99.90;;;;;;6198188;22;20112;-83
2022/11/01 10:25:07;;;;;;;14.27;3.30;;;15.40;99.90;;;;;;6197145;22;20111;-84
2022/11/01 10:27:57;;;;;;;16.45;3.20;;;15.60;99.90;;;;;;6221286;23;20012;-84
2022/11/01 10:30:23;;;;;;;16.17;3.22;;;15.50;99.90;;;;;;6197842;22;20012;-84
2022/11/01 10:33:01;;;;;;;10.48;3.05;;;15.50;1.00;;;;;;6197448;22;20163;-85
2022/11/01 10:35:37;;;;;;;15.30;2.80;;;15.50;1.00;;;;;;6223205;23;20043;-83
2022/11/01 10:38:31;;;;;;;14.15;3.40;;;15.60;1.00;;;;;;6198086;22;20020;-84
2022/11/01 10:41:11;;;;;;;14.20;2.45;;;15.80;1.00;;;;;;6220652;23;20074;-83
2022/11/01 10:43:42;;;;;;;13.18;2.90;;;15.80;99.90;;;;;;6196413;22;20470;-84
2022/11/01 10:46:16;;;;;;;14.40;2.70;;;15.70;99.90;;;;;;6198253;22;20479;-84
2022/11/01 10:49:04;;;;;;;14.25;3.33;;;15.70;1.00;;;;;;6222893;23;20484;-84
2022/11/01 10:51:33;;;;;;;13.73;2.88;;;15.70;99.90;;;;;;6199349;22;20049;-84
2022/11/01 10:54:03;;;;;;;11.93;2.60;;;15.60;18.00;;;;;;6201560;22;20034;-84
2022/11/01 10:56:43;;;;;;;13.82;3.03;;;15.60;23.40;;;;;;6201681;22;20145;-83
2022/11/01 10:59:23;;;;;;;15.65;3.55;;;15.60;99.90;;;;;;6202344;22;20037;-84
2022/11/01 11:01:51;;;;;;;14.15;2.90;;;15.70;1.00;;;;;;6202744;22;20019;-84
2022/11/01 11:04:21;;;;;;;14.20;2.80;;;15.60;99.90;;;;;;6228721;22;20235;-84
2022/11/01 11:06:50;;;;;;;17.80;3.22;;;15.60;99.90;;;;;;6202718;22;20026;-84
2022/11/01 11:09:31;;;;;;;14.73;3.20;;;15.40;99.90;;;;;;6201714;22;20008;-84
2022/11/01 11:12:01;;;;;;;8.77;2.60;;;15.40;99.90;;;;;;6201899;22;20080;-84
2022/11/01 11:14:30;;;;;;;11.80;2.70;;;15.50;1.00;;;;;;6201405;22;20039;-84
2022/11/01 11:16:57;;;;;;;16.60;2.90;;;15.40;1.00;;;;;;6202670;22;20023;-84
2022/11/01 11:19:28;;;;;;;10.38;2.88;;;15.50;1.00;;;;;;6227888;22;20305;-84
2022/11/01 11:21:58;;;;;;;18.27;2.50;;;15.50;99.90;;;;;;6203600;22;20016;-84
2022/11/01 11:24:31;;;;;;;14.88;3.22;;;15.70;99.90;;;;;;6201271;22;20019;-84
2022/11/01 11:26:58;;;;;;;14.85;2.92;;;15.70;99.90;;;;;;6227687;22;20033;-84
2022/11/01 11:29:29;;;;;;;12.52;2.85;;;15.70;99.90;;;;;;6201735;22;20095;-84
2022/11/01 11:32:03;;;;;;;14.45;2.60;;;15.90;99.90;;;;;;6203029;22;20581;-84
2022/11/01 11:34:34;;;;;;;13.52;3.72;;;15.90;99.90;;;;;;6203013;22;20048;-84
2022/11/01 11:37:02;;;;;;;12.30;2.35;;;16.00;99.90;;;;;;6203508;22;20015;-84
2022/11/01 11:39:35;;;;;;;14.38;3.00;;;16.00;63.90;;;;;;6202337;22;20072;-84
2022/11/01 11:42:19;;;;;;;14.85;3.08;;;16.00;99.90;;;;;;6227750;22;20080;-84
2022/11/01 11:44:47;;;;;;;13.55;2.53;;;15.80;96.50;;;;;;6201770;22;20068;-84
2022/11/01 11:47:25;;;;;;;12.77;2.97;;;15.90;96.70;;;;;;6228627;22;20018;-84
2022/11/01 11:49:52;;;;;;;10.85;2.60;;;16.00;68.60;;;;;;6203057;22;20226;-84
2022/11/01 11:52:35;;;;;;;11.20;2.50;;;16.00;99.90;;;;;;6197983;23;20095;-83
2022/11/01 11:55:04;;;;;;;12.02;2.90;;;16.10;99.30;;;;;;6196542;22;20028;-84
2022/11/01 11:57:30;;;;;;;13.15;2.80;;;16.20;91.40;;;;;;6196888;22;20285;-84
2022/11/01 12:00:06;;;;;;;13.95;2.80;;;16.10;1.00;;;;;;6196936;22;20317;-83
2022/11/01 12:02:37;;;;;;;9.85;2.47;;;16.10;1.00;;;;;;6197896;22;20022;-84
2022/11/01 12:05:07;;;;;;;8.52;2.53;;;16.20;61.50;;;;;;6222666;23;20466;-84
2022/11/01 12:07:45;;;;;;;18.08;3.72;;;16.00;1.00;;;;;;6197028;22;20023;-84
2022/11/01 12:10:26;;;;;;;9.55;2.10;;;16.00;93.50;;;;;;6196912;22;20039;-84
2022/11/01 12:12:53;;;;;;;11.32;2.55;;;16.20;99.90;;;;;;6195488;22;20478;-84
2022/11/01 12:15:32;;;;;;;17.95;2.92;;;16.00;99.90;;;;;;6196762;22;20524;-84
2022/11/01 12:18:14;;;;;;;8.32;2.50;;;16.20;99.90;;;;;;6197380;22;20231;-84
2022/11/01 12:20:47;;;;;;;11.07;2.78;;;16.20;1.00;;;;;;6198625;23;20127;-84
2022/11/01 12:23:25;;;;;;;12.70;2.70;;;16.30;73.50;;;;;;6199216;22;20072;-84
2022/11/01 12:25:52;;;;;;;10.18;2.22;;;16.40;40.20;;;;;;6223150;23;20016;-84
2022/11/01 12:28:23;;;;;;;7.88;2.55;;;16.40;99.90;;;;;;6198007;22;20012;-84
2022/11/01 12:30:54;;;;;;;11.25;2.13;;;16.40;99.90;;;;;;6198859;22;20012;-84
2022/11/01 12:33:36;;;;;;;9.80;2.38;;;16.60;1.00;;;;;;6223783;23;20476;-83
2022/11/01 12:36:02;;;;;;;9.23;2.50;;;16.60;1.00;;;;;;6198540;22;20016;-84
2022/11/01 12:38:49;;;;;;;9.32;2.00;;;16.60;99.90;;;;;;6199672;22;20421;-84
2022/11/01 12:41:41;;;;;;;13.35;2.50;;;16.60;99.90;;;;;;6196877;22;20141;-84
2022/11/01 12:44:31;;;;;;;10.63;2.58;;;16.70;99.90;;;;;;6197173;22;20012;-84
2022/11/01 12:47:22;;;;;;;13.55;2.13;;;16.90;99.90;;;;;;6199141;22;20020;-84
2022/11/01 12:49:59;;;;;;;13.60;2.53;;;16.80;99.90;;;;;;6199189;22;20089;-84
2022/11/01 12:52:43;;;;;;;11.00;2.10;;;16.90;99.90;;;;;;6198927;22;20021;-84
2022/11/01 12:55:12;;;;;;;10.77;2.28;;;16.90;99.90;;;;;;6197582;22;20077;-84
2022/11/01 12:57:38;;;;;;;8.25;1.70;;;16.80;99.90;;;;;;6197568;22;20055;-83
2022/11/01 13:00:06;;;;;;;9.57;1.88;;;16.90;99.90;;;;;;6198232;22;20073;-83
2022/11/01 13:02:44;;;;;;;10.70;2.28;;;17.00;99.90;;;;;;6198444;23;20016;-84
2022/11/01 13:05:23;;;;;;;10.93;2.60;;;16.90;99.90;;;;;;6198213;23;20026;-84